This is the latest recevied weather packets stored in our database for station/object PD2SKZ-12. If no packets are shown the sender has not sent any weather packets the latest 10 day(s).
| Time | Temp. | Humidity | Pressure | Rain* | Wind** | Luminosity | Snow |
|---|---|---|---|---|---|---|---|
| 1777741366 | 22.78° C | 42% | 1015.1 hPa | 0 mm | - | - | - |
| 1777740466 | 22.78° C | 42% | 1015.5 hPa | 0 mm | - | - | - |
| 1777739866 | 23.33° C | 40% | 1015.7 hPa | 0 mm | - | - | - |
| 1777738086 | 22.78° C | 40% | 1016.1 hPa | 0 mm | - | - | - |
| 1777731767 | 23.89° C | 42% | 1017.2 hPa | 0 mm | - | - | - |
| 1777731466 | 22.78° C | 43% | 1017.2 hPa | 0 mm | - | - | - |
| 1777730566 | 23.33° C | 45% | 1017.5 hPa | 0 mm | - | - | - |
| 1777729367 | 21.67° C | 50% | 1017.7 hPa | 0 mm | - | - | - |
| 1777727536 | 22.78° C | 52% | 1018.1 hPa | 0 mm | - | - | - |
| 1777725466 | 21.11° C | 58% | 1018.2 hPa | 0 mm | - | - | - |
| 1777722466 | 22.22° C | 61% | 1018.7 hPa | 0 mm | - | - | - |
| 1777721886 | 21.67° C | 63% | 1018.7 hPa | 0 mm | - | - | - |
| 1777720667 | 20.56° C | 69% | 1018.9 hPa | 0 mm | - | - | - |
| 1777717369 | 20° C | 73% | 1019.1 hPa | 0 mm | - | - | - |
| 1777714987 | 18.89° C | 79% | 1019.1 hPa | 0 mm | - | - | - |
| 1777713767 | 18.89° C | 79% | 1019.2 hPa | 0 mm | - | - | - |
| 1777712866 | 18.89° C | 80% | 1019.3 hPa | 0 mm | - | - | - |
| 1777710167 | 21.11° C | 71% | 1019.1 hPa | 0 mm | - | - | - |
| 1777709567 | 19.44° C | 75% | 1019 hPa | 0 mm | - | - | - |
| 1777708367 | 16.67° C | 87% | 1018.9 hPa | 0 mm | - | - | - |
| 1777706267 | 14.44° C | 90% | 1018.9 hPa | 2.03 mm | - | - | - |
| 1777705667 | 14.44° C | 89% | 1018.9 hPa | 2.03 mm | - | - | - |
| 1777701407 | 14.44° C | 69% | 1019.2 hPa | 0 mm | - | - | - |
| 1777699627 | 13.89° C | 65% | 1019 hPa | 0 mm | - | - | - |
| 1777699307 | 13.89° C | 65% | 1019 hPa | 0 mm | - | - | - |
* Rain latest hour (hover to see other rain measurements)
** Current wind speed in m/s (hover to see current wind gust speed)